Terminal Aerodrome Forecast
Issued by NWS

Home | Current Version | Previous Version | Text Only | Print | Product List | Glossary On
Versions: 1 2 3 4 5 6 7 8 9 10 11 12 13 14 15
000
FTUS42 TJSJ 291142
TAFJBQ
TAF
TJBQ 291142Z 2912/3012 10011G16KT P6SM -RA VCSH SCT013 BKN023
      BKN100
     FM291400 08014G18KT P6SM SCT020 BKN060
     FM291730 09016KT P6SM VCTS SCT015 BKN025CB BKN030
      TEMPO 2918/2921 3SM TSRA BKN020CB OVC050
     FM292300 09009KT P6SM FEW025 SCT060=

USA.gov is the U.S. government's official web portal to all federal, state and local government web resources and services.